createdAt,value
2023-11-18T00:00:18.354Z,1.08
2023-11-18T00:05:15.408Z,1.58
2023-11-18T00:10:13.319Z,1.17
2023-11-18T00:15:13.007Z,0.90
2023-11-18T00:20:11.114Z,5.18
2023-11-18T00:25:12.275Z,2.08
2023-11-18T00:30:14.651Z,1.50
2023-11-18T00:35:11.959Z,1.20
2023-11-18T00:40:10.811Z,1.33
2023-11-18T00:45:14.038Z,2.15
2023-11-18T00:50:11.334Z,0.85
2023-11-18T00:55:10.045Z,1.42
2023-11-18T01:00:15.402Z,1.20
2023-11-18T01:05:12.501Z,1.77
2023-11-18T01:10:11.415Z,1.02
2023-11-18T01:15:11.644Z,2.00
2023-11-18T01:20:11.317Z,1.10
2023-11-18T01:25:10.265Z,0.90
2023-11-18T01:30:07.645Z,1.17
2023-11-18T01:35:04.741Z,1.10
2023-11-18T01:40:06.259Z,1.08
2023-11-18T01:45:05.176Z,1.40
2023-11-18T01:50:08.125Z,1.60
2023-11-18T01:55:08.370Z,1.63
2023-11-18T02:00:07.621Z,1.30
2023-11-18T02:05:07.355Z,1.20
2023-11-18T02:10:10.497Z,1.00
2023-11-18T02:15:14.142Z,1.02
2023-11-18T02:20:17.612Z,1.10
2023-11-18T02:25:20.804Z,1.05
2023-11-18T02:30:18.672Z,0.47
2023-11-18T02:35:27.276Z,0.93
2023-11-18T02:40:45.020Z,0.63
2023-11-18T02:45:43.223Z,0.55
2023-11-18T02:50:42.951Z,0.80
2023-11-18T02:55:42.450Z,0.90
2023-11-18T03:00:41.742Z,0.98
2023-11-18T03:05:39.244Z,0.63
2023-11-18T03:10:36.371Z,0.55
2023-11-18T03:15:33.288Z,0.70
2023-11-18T03:20:33.253Z,0.43
2023-11-18T03:25:30.179Z,0.70
2023-11-18T03:30:28.295Z,0.43
2023-11-18T03:35:25.462Z,0.52
2023-11-18T03:40:22.254Z,0.82
2023-11-18T03:45:19.797Z,0.20
2023-11-18T03:50:17.072Z,0.50
2023-11-18T03:55:13.840Z,0.70
2023-11-18T04:00:12.959Z,0.57
2023-11-18T04:05:10.276Z,0.38
2023-11-18T04:10:08.066Z,0.57
2023-11-18T04:15:06.150Z,0.50
2023-11-18T04:20:05.675Z,0.60
2023-11-18T04:25:02.434Z,0.30
2023-11-18T04:29:59.209Z,0.40
2023-11-18T04:34:56.418Z,0.10
2023-11-18T04:39:53.477Z,0.63
2023-11-18T04:44:50.244Z,0.60
2023-11-18T04:49:46.988Z,0.35
2023-11-18T04:54:43.749Z,0.30
2023-11-18T04:59:40.447Z,0.20
2023-11-18T05:04:37.300Z,0.22
2023-11-18T05:09:34.074Z,0.20
2023-11-18T05:14:31.902Z,0.30
2023-11-18T05:19:28.629Z,0.30
2023-11-18T05:24:25.354Z,0.30
2023-11-18T05:29:22.388Z,0.47
2023-11-18T05:34:22.479Z,0.40
2023-11-18T05:39:21.524Z,0.30
2023-11-18T05:44:22.050Z,0.30
2023-11-18T05:49:19.296Z,0.30
2023-11-18T05:54:16.019Z,0.20
2023-11-18T05:59:13.668Z,0.50
2023-11-18T06:04:10.584Z,0.25
2023-11-18T06:09:10.530Z,0.20
2023-11-18T06:14:09.776Z,0.00
2023-11-18T06:19:07.400Z,0.10
2023-11-18T06:24:07.659Z,0.20
2023-11-18T06:29:05.454Z,0.30
2023-11-18T06:34:04.168Z,0.25
2023-11-18T06:39:01.772Z,0.25
2023-11-18T06:44:02.250Z,0.30
2023-11-18T06:49:00.396Z,0.15
2023-11-18T06:53:58.287Z,0.20
2023-11-18T06:58:55.653Z,0.20
2023-11-18T07:03:54.564Z,0.22
2023-11-18T07:08:51.834Z,0.10
2023-11-18T07:13:50.640Z,0.20
2023-11-18T07:18:48.917Z,0.22
2023-11-18T07:23:48.316Z,0.17
2023-11-18T07:28:46.193Z,0.20
2023-11-18T07:33:45.874Z,0.20
2023-11-18T07:38:42.779Z,0.10
2023-11-18T07:43:41.822Z,0.30
2023-11-18T07:48:38.857Z,0.17
2023-11-18T07:53:35.608Z,0.13
2023-11-18T07:58:33.241Z,0.20
2023-11-18T08:03:30.010Z,0.20
2023-11-18T08:08:27.210Z,0.10
2023-11-18T08:13:23.952Z,0.30
2023-11-18T08:18:23.286Z,0.10
2023-11-18T08:23:20.634Z,0.35
2023-11-18T08:28:20.656Z,0.25
2023-11-18T08:33:18.585Z,0.10
2023-11-18T08:38:15.396Z,0.20
2023-11-18T08:43:12.715Z,0.08
2023-11-18T08:48:09.958Z,0.20
2023-11-18T08:53:11.652Z,0.30
2023-11-18T08:58:29.743Z,0.15
2023-11-18T09:03:30.360Z,0.20
2023-11-18T09:08:39.843Z,0.20
2023-11-18T09:13:37.141Z,0.10
2023-11-18T09:18:34.990Z,0.30
2023-11-18T09:23:33.946Z,0.50
2023-11-18T09:28:30.933Z,0.32
2023-11-18T09:33:34.224Z,0.20
2023-11-18T09:38:34.913Z,0.50
2023-11-18T09:43:34.184Z,0.40
2023-11-18T09:48:31.206Z,0.50
2023-11-18T09:53:33.317Z,0.30
2023-11-18T09:58:42.531Z,0.30
2023-11-18T10:03:47.165Z,0.30
2023-11-18T10:08:47.281Z,0.50
2023-11-18T10:13:45.620Z,0.30
2023-11-18T10:18:50.720Z,0.30
2023-11-18T10:24:02.814Z,0.32
2023-11-18T10:29:06.636Z,0.30
2023-11-18T10:34:05.406Z,0.30
2023-11-18T10:39:04.432Z,0.60
2023-11-18T10:44:17.676Z,0.50
2023-11-18T10:49:14.468Z,0.43
2023-11-18T10:54:18.718Z,0.52
2023-11-18T10:59:17.924Z,0.63
2023-11-18T11:04:18.356Z,0.63
2023-11-18T11:09:18.205Z,0.22
2023-11-18T11:14:19.285Z,0.65
2023-11-18T11:19:46.140Z,0.40
2023-11-18T11:25:11.317Z,0.40
2023-11-18T11:30:17.188Z,0.50
2023-11-18T11:35:23.867Z,0.50
2023-11-18T11:40:25.678Z,0.60
2023-11-18T11:45:29.901Z,0.50
2023-11-18T11:50:33.754Z,0.68
2023-11-18T11:55:39.948Z,0.40
2023-11-18T12:00:36.656Z,0.82
2023-11-18T12:05:35.217Z,0.63
2023-11-18T12:10:32.990Z,0.50
2023-11-18T12:16:05.992Z,0.60
2023-11-18T12:21:05.877Z,0.73
2023-11-18T12:26:04.638Z,0.47
2023-11-18T12:31:18.121Z,0.50
2023-11-18T12:36:49.049Z,0.40
2023-11-18T12:41:56.511Z,0.60
2023-11-18T12:47:11.104Z,0.73
2023-11-18T12:52:09.953Z,0.90
2023-11-18T12:57:10.379Z,0.98
2023-11-18T13:02:19.542Z,1.40
2023-11-18T13:07:26.291Z,0.60
2023-11-18T13:12:25.162Z,0.85
2023-11-18T13:17:23.386Z,1.08
2023-11-18T13:22:21.017Z,0.82
2023-11-18T13:27:20.910Z,0.77
2023-11-18T13:32:18.403Z,0.60
2023-11-18T13:37:18.328Z,0.60
2023-11-18T13:42:21.745Z,0.90
2023-11-18T13:47:19.016Z,1.05
2023-11-18T13:52:18.142Z,1.15
2023-11-18T13:57:18.046Z,0.80
2023-11-18T14:02:18.040Z,1.63
2023-11-18T14:07:18.733Z,1.10
2023-11-18T14:12:15.781Z,1.00
2023-11-18T14:17:12.661Z,0.93
2023-11-18T14:22:11.107Z,1.17
2023-11-18T14:27:11.544Z,1.13
2023-11-18T14:32:09.020Z,1.83
2023-11-18T14:37:08.050Z,1.33
2023-11-18T14:42:05.318Z,1.60
2023-11-18T14:47:02.079Z,1.58
2023-11-18T14:51:58.880Z,1.60
2023-11-18T14:56:57.276Z,2.13
2023-11-18T15:01:59.013Z,2.10
2023-11-18T15:06:57.134Z,2.28
2023-11-18T15:11:54.747Z,2.20
2023-11-18T15:16:51.998Z,2.28
2023-11-18T15:21:50.188Z,2.28
2023-11-18T15:26:49.758Z,2.00
2023-11-18T15:31:47.440Z,2.65
2023-11-18T15:36:44.227Z,2.30
2023-11-18T15:41:41.293Z,2.38
2023-11-18T15:46:39.131Z,2.08
2023-11-18T15:51:35.882Z,3.50
2023-11-18T15:56:32.971Z,2.40
2023-11-18T16:01:29.678Z,2.85
2023-11-18T16:06:30.516Z,4.00
2023-11-18T16:11:27.776Z,3.55
2023-11-18T16:16:28.347Z,3.28
2023-11-18T16:21:25.307Z,4.65
2023-11-18T16:26:22.732Z,2.50
2023-11-18T16:31:19.569Z,2.35
2023-11-18T16:36:29.523Z,2.47
2023-11-18T16:41:35.033Z,3.10
2023-11-18T16:46:41.208Z,3.65
2023-11-18T16:51:39.726Z,3.13
2023-11-18T16:56:36.507Z,4.32
2023-11-18T17:01:33.333Z,2.33
2023-11-18T17:06:30.090Z,3.15
2023-11-18T17:11:27.163Z,2.70
2023-11-18T17:16:28.325Z,3.20
2023-11-18T17:21:25.305Z,3.10
2023-11-18T17:26:22.685Z,4.03
2023-11-18T17:31:20.035Z,3.55
2023-11-18T17:36:21.251Z,4.22
2023-11-18T17:41:19.706Z,5.90
2023-11-18T17:46:17.310Z,4.35
2023-11-18T17:51:16.068Z,2.95
2023-11-18T17:56:14.536Z,3.33
2023-11-18T18:01:11.373Z,3.20
2023-11-18T18:06:10.141Z,3.60
2023-11-18T18:11:09.583Z,2.50
2023-11-18T18:16:07.037Z,3.00
2023-11-18T18:21:03.895Z,3.40
2023-11-18T18:26:00.649Z,4.63
2023-11-18T18:30:58.311Z,4.35
2023-11-18T18:35:55.056Z,3.95
2023-11-18T18:40:52.095Z,3.47
2023-11-18T18:45:49.640Z,2.45
2023-11-18T18:50:47.277Z,3.38
2023-11-18T18:55:44.054Z,3.95
2023-11-18T19:00:41.644Z,3.55
2023-11-18T19:05:41.182Z,5.28
2023-11-18T19:10:38.962Z,4.78
2023-11-18T19:15:37.414Z,3.00
2023-11-18T19:20:34.124Z,4.50
2023-11-18T19:25:30.886Z,4.28
2023-11-18T19:30:27.650Z,3.83
2023-11-18T19:35:27.230Z,3.50
2023-11-18T19:40:25.367Z,3.15
2023-11-18T19:45:23.275Z,4.55
2023-11-18T19:50:27.369Z,3.65
2023-11-18T19:55:24.385Z,3.78
2023-11-18T20:00:24.945Z,3.60
2023-11-18T20:05:21.836Z,3.92
2023-11-18T20:10:18.805Z,4.45
2023-11-18T20:15:15.516Z,3.75
2023-11-18T20:20:12.779Z,4.25
2023-11-18T20:25:09.895Z,4.28
2023-11-18T20:30:07.396Z,3.10
2023-11-18T20:35:05.806Z,3.88
2023-11-18T20:40:03.956Z,3.00
2023-11-18T20:45:01.021Z,5.13
2023-11-18T20:49:58.581Z,3.47
2023-11-18T20:54:56.314Z,3.75
2023-11-18T20:59:53.088Z,4.32
2023-11-18T21:04:50.005Z,3.50
2023-11-18T21:09:46.838Z,4.53
2023-11-18T21:14:43.853Z,5.13
2023-11-18T21:19:40.632Z,5.28
2023-11-18T21:24:37.645Z,3.65
2023-11-18T21:29:35.192Z,4.03
2023-11-18T21:34:31.944Z,4.65
2023-11-18T21:39:28.994Z,4.65
2023-11-18T21:44:25.794Z,3.95
2023-11-18T21:49:22.642Z,4.60
2023-11-18T21:54:19.376Z,3.80
2023-11-18T21:59:16.121Z,4.53
2023-11-18T22:04:12.989Z,4.60
2023-11-18T22:09:10.424Z,4.80
2023-11-18T22:14:08.721Z,5.32
2023-11-18T22:19:05.869Z,5.18
2023-11-18T22:24:02.640Z,4.22
2023-11-18T22:28:59.379Z,4.88
2023-11-18T22:33:56.747Z,3.67
2023-11-18T22:38:53.487Z,4.18
2023-11-18T22:43:50.237Z,3.72
2023-11-18T22:48:47.125Z,4.50
2023-11-18T22:53:44.122Z,4.20
2023-11-18T22:58:40.909Z,3.78
2023-11-18T23:03:41.807Z,3.10
2023-11-18T23:08:38.759Z,4.97
2023-11-18T23:13:36.964Z,4.57
2023-11-18T23:18:33.957Z,4.97
2023-11-18T23:23:30.769Z,3.92
2023-11-18T23:28:28.144Z,5.07
2023-11-18T23:33:25.356Z,5.25
2023-11-18T23:38:22.941Z,5.60
2023-11-18T23:43:20.329Z,4.85
2023-11-18T23:48:17.132Z,3.28
2023-11-18T23:53:13.978Z,4.30
2023-11-18T23:58:13.959Z,4.00
